Time;durP1;ratioP1;P1;durP2;ratioP2;P2;SDS_P1;SDS_P2;PMS_P1;PMS_P2;Temp;Humidity;BMP_temperature;BMP_pressure;BME280_temperature;BME280_humidity;BME280_pressure;Samples;Min_cycle;Max_cycle;Signal;HPM_P1;HPM_P2
2023/04/09 00:01:02;;;;;;;7.70;5.70;;;;;;;13.22;53.24;101086.00;108133;1286;21987;-65
2023/04/09 00:03:31;;;;;;;8.70;5.90;;;;;;;13.21;53.27;101083.55;108119;1286;21990;-66
2023/04/09 00:05:56;;;;;;;9.80;7.30;;;;;;;13.18;53.37;101081.11;108136;1286;21989;-64
2023/04/09 00:08:25;;;;;;;8.80;6.50;;;;;;;13.14;53.49;101073.92;108149;1286;22047;-66
2023/04/09 00:10:55;;;;;;;9.10;6.40;;;;;;;13.12;53.63;101071.83;108227;1286;21998;-64
2023/04/09 00:13:22;;;;;;;9.30;5.50;;;;;;;13.13;53.65;101069.19;108155;1286;21996;-66
2023/04/09 00:15:48;;;;;;;8.10;5.80;;;;;;;13.14;53.59;101069.00;108073;1285;22008;-63
2023/04/09 00:18:17;;;;;;;10.10;6.50;;;;;;;13.16;53.60;101070.55;108150;1285;22451;-63
2023/04/09 00:20:44;;;;;;;8.50;6.50;;;;;;;13.18;53.65;101063.66;108086;1285;22003;-66
2023/04/09 00:23:12;;;;;;;11.00;7.20;;;;;;;13.18;53.56;101064.36;108313;1285;21976;-64
2023/04/09 00:25:38;;;;;;;10.30;7.00;;;;;;;13.17;53.61;101064.20;108248;1285;21989;-63
2023/04/09 00:28:03;;;;;;;8.10;6.00;;;;;;;13.18;53.70;101062.43;108076;1285;21992;-67
2023/04/09 00:30:29;;;;;;;9.20;6.20;;;;;;;13.18;53.75;101065.60;108097;1286;21987;-65
2023/04/09 00:32:56;;;;;;;9.20;5.90;;;;;;;13.19;53.85;101062.95;108150;1286;22007;-65
2023/04/09 00:35:21;;;;;;;8.30;6.70;;;;;;;13.21;53.82;101060.63;108264;1286;21986;-65
2023/04/09 00:37:47;;;;;;;9.10;6.80;;;;;;;13.25;54.03;101061.45;108208;1285;22001;-68
2023/04/09 00:40:13;;;;;;;9.00;6.70;;;;;;;13.27;54.13;101056.49;108040;1285;21982;-64
2023/04/09 00:42:39;;;;;;;8.70;5.90;;;;;;;13.30;54.06;101056.81;108103;1285;21981;-65
2023/04/09 00:45:06;;;;;;;8.30;5.60;;;;;;;13.32;54.02;101054.31;108025;1285;21990;-65
2023/04/09 00:47:34;;;;;;;8.20;6.20;;;;;;;13.37;53.94;101055.66;108100;1280;21992;-67
2023/04/09 00:50:01;;;;;;;8.90;6.70;;;;;;;13.41;54.10;101054.58;108112;1286;21989;-68
2023/04/09 00:52:32;;;;;;;9.90;7.50;;;;;;;13.44;54.20;101057.91;108132;1286;21995;-67
2023/04/09 00:55:00;;;;;;;9.00;7.10;;;;;;;13.47;53.99;101061.55;108115;1286;22011;-68
2023/04/09 00:57:29;;;;;;;8.50;6.30;;;;;;;13.50;54.11;101060.11;108160;1285;21988;-65
2023/04/09 00:59:55;;;;;;;8.60;6.00;;;;;;;13.50;54.17;101063.27;108057;1285;21986;-68
2023/04/09 01:02:21;;;;;;;7.30;6.40;;;;;;;13.52;54.11;101061.14;108106;1285;21998;-65
2023/04/09 01:04:47;;;;;;;9.60;7.10;;;;;;;13.55;54.21;101056.35;108078;1285;21986;-66
2023/04/09 01:07:27;;;;;;;9.20;6.60;;;;;;;13.59;54.37;101056.48;108270;1285;22022;-65
2023/04/09 01:10:15;;;;;;;8.80;6.30;;;;;;;13.58;54.73;101055.77;108128;1286;21993;-65
2023/04/09 01:13:27;;;;;;;8.50;6.60;;;;;;;13.57;54.90;101053.48;108159;1286;22102;-64
2023/04/09 01:15:58;;;;;;;7.80;6.30;;;;;;;13.60;54.87;101052.05;108032;1286;22459;-64
2023/04/09 01:18:28;;;;;;;9.90;7.50;;;;;;;13.59;55.36;101051.54;108136;1286;21988;-65
2023/04/09 01:21:01;;;;;;;8.60;7.00;;;;;;;13.61;54.92;101051.85;108081;1286;22068;-64
2023/04/09 01:23:57;;;;;;;8.70;5.90;;;;;;;13.64;54.86;101054.10;108142;1286;21989;-65
2023/04/09 01:26:35;;;;;;;7.10;5.20;;;;;;;13.69;54.69;101053.84;108137;1285;21996;-65
2023/04/09 01:29:01;;;;;;;8.20;5.80;;;;;;;13.78;54.76;101053.89;108149;1285;21985;-68
2023/04/09 01:31:31;;;;;;;9.60;6.60;;;;;;;13.82;54.66;101051.71;108116;1285;21990;-65
2023/04/09 01:33:57;;;;;;;10.00;7.30;;;;;;;13.83;54.80;101051.70;108091;1285;21989;-68
2023/04/09 01:36:23;;;;;;;9.20;7.20;;;;;;;13.81;54.82;101051.91;108182;1286;21986;-67
2023/04/09 01:38:50;;;;;;;8.70;6.70;;;;;;;13.77;55.06;101047.20;108181;1286;24037;-65
2023/04/09 01:41:17;;;;;;;9.90;6.90;;;;;;;13.73;55.11;101043.92;108121;1286;22024;-64
2023/04/09 01:43:43;;;;;;;9.90;5.80;;;;;;;13.69;55.15;101043.97;108122;1286;21992;-63
2023/04/09 01:46:08;;;;;;;8.60;6.90;;;;;;;13.67;55.37;101041.73;107979;1286;21991;-66
2023/04/09 01:48:35;;;;;;;11.50;7.50;;;;;;;13.67;55.38;101041.89;108171;1286;21998;-66
2023/04/09 01:51:01;;;;;;;8.40;7.10;;;;;;;13.67;55.51;101039.79;107861;1286;21999;-65
2023/04/09 01:53:27;;;;;;;11.30;7.80;;;;;;;13.65;55.58;101038.76;107967;1284;21986;-67
2023/04/09 01:55:55;;;;;;;10.70;7.70;;;;;;;13.63;55.78;101042.84;108172;1284;22062;-67
2023/04/09 01:58:26;;;;;;;11.00;6.60;;;;;;;13.61;55.76;101045.16;108252;1284;22751;-66
2023/04/09 02:00:57;;;;;;;10.10;6.90;;;;;;;13.61;55.59;101042.70;108195;1284;22157;-63
2023/04/09 02:03:40;;;;;;;9.60;7.10;;;;;;;13.62;55.67;101044.08;107383;1284;1002236;-67
2023/04/09 02:06:20;;;;;;;9.50;7.30;;;;;;;13.65;55.61;101041.75;108133;1284;22452;-63
2023/04/09 02:08:46;;;;;;;10.40;7.70;;;;;;;13.66;55.85;101043.50;108215;1285;22063;-63
2023/04/09 02:11:13;;;;;;;11.00;6.90;;;;;;;13.67;55.70;101042.77;108121;1285;22024;-66
2023/04/09 02:13:40;;;;;;;10.40;6.80;;;;;;;13.67;55.70;101041.36;108142;1285;21986;-67
2023/04/09 02:16:06;;;;;;;9.50;7.30;;;;;;;13.69;55.87;101044.14;108136;1280;21991;-63
2023/04/09 02:18:33;;;;;;;10.30;7.40;;;;;;;13.73;55.68;101047.27;108185;1284;21978;-64
2023/04/09 02:20:58;;;;;;;10.70;8.10;;;;;;;13.76;55.70;101049.86;108150;1284;21984;-63
2023/04/09 02:23:26;;;;;;;9.60;6.60;;;;;;;13.80;55.68;101049.64;108087;1284;21985;-63
2023/04/09 02:25:52;;;;;;;10.90;7.20;;;;;;;13.81;55.84;101049.10;108132;1284;22025;-66
2023/04/09 02:28:19;;;;;;;11.00;6.90;;;;;;;13.82;55.80;101050.14;108231;1284;21972;-67
2023/04/09 02:30:44;;;;;;;9.20;7.00;;;;;;;13.82;55.85;101047.14;108264;1284;21987;-66
2023/04/09 02:33:10;;;;;;;10.90;7.80;;;;;;;13.84;55.96;101046.23;108130;1284;23637;-68
2023/04/09 02:35:37;;;;;;;9.00;6.80;;;;;;;13.86;55.81;101045.85;108136;1284;22047;-64
2023/04/09 02:38:03;;;;;;;11.00;7.60;;;;;;;13.87;55.82;101043.19;108094;1284;22167;-68
2023/04/09 02:40:29;;;;;;;11.30;7.70;;;;;;;13.88;55.73;101042.46;108189;1284;21995;-67
2023/04/09 02:42:56;;;;;;;9.70;6.40;;;;;;;13.92;55.75;101041.16;108133;1284;21986;-65
2023/04/09 02:45:21;;;;;;;9.40;7.10;;;;;;;13.98;55.65;101039.66;108159;1284;22002;-67
2023/04/09 02:47:53;;;;;;;10.50;7.50;;;;;;;14.02;55.65;101039.95;108173;1284;21984;-64
2023/04/09 02:50:19;;;;;;;9.60;7.60;;;;;;;14.04;55.55;101042.04;108106;1284;21983;-64
2023/04/09 02:52:46;;;;;;;13.20;8.70;;;;;;;14.04;55.52;101042.23;108130;1284;21989;-67
2023/04/09 02:55:12;;;;;;;10.90;8.40;;;;;;;14.03;55.61;101043.98;108151;1284;21981;-65
2023/04/09 02:57:39;;;;;;;14.30;8.80;;;;;;;14.02;55.89;101043.66;108158;1284;21998;-68
2023/04/09 03:00:08;;;;;;;13.70;8.90;;;;;;;13.99;55.98;101042.10;108045;1284;21969;-68
2023/04/09 03:02:38;;;;;;;;;;;;;;;13.95;55.84;101044.46;108110;1284;23618;-68
2023/04/09 03:05:04;;;;;;;13.90;8.80;;;;;;;13.93;55.67;101045.02;108147;1284;22005;-66
2023/04/09 03:07:30;;;;;;;13.00;7.80;;;;;;;13.94;55.69;101049.77;108183;1284;22043;-64
2023/04/09 03:09:56;;;;;;;10.40;7.80;;;;;;;13.94;55.67;101051.00;108098;1284;21987;-68
2023/04/09 03:12:22;;;;;;;16.90;9.40;;;;;;;13.94;55.58;101056.81;108124;1284;21983;-65
2023/04/09 03:14:47;;;;;;;20.50;10.50;;;;;;;13.91;55.41;101056.70;108082;1284;22174;-65
2023/04/09 03:17:15;;;;;;;18.90;9.20;;;;;;;13.92;55.58;101057.05;108260;1284;22593;-65
2023/04/09 03:19:40;;;;;;;11.10;7.70;;;;;;;13.94;55.50;101056.46;108212;1284;21984;-65
2023/04/09 03:22:06;;;;;;;11.00;7.20;;;;;;;13.95;55.37;101058.40;108303;1284;21992;-68
2023/04/09 03:24:33;;;;;;;11.00;7.90;;;;;;;13.96;55.25;101057.16;108212;1284;21986;-65
2023/04/09 03:26:59;;;;;;;10.50;8.00;;;;;;;13.95;55.35;101059.10;108210;1284;21995;-68
2023/04/09 03:29:25;;;;;;;11.40;8.20;;;;;;;13.94;55.28;101058.94;108128;1284;22023;-65
2023/04/09 03:31:51;;;;;;;12.50;9.00;;;;;;;13.94;55.16;101057.52;108172;1284;21983;-67
2023/04/09 03:34:16;;;;;;;15.60;10.10;;;;;;;13.94;55.27;101055.77;108206;1284;22019;-64
2023/04/09 03:36:42;;;;;;;12.30;8.70;;;;;;;13.94;55.28;101053.48;108148;1284;21996;-65
2023/04/09 03:39:10;;;;;;;12.20;8.80;;;;;;;13.93;55.32;101049.42;108093;1286;21988;-66
2023/04/09 03:41:36;;;;;;;11.70;8.50;;;;;;;13.92;55.29;101052.61;108066;1286;21986;-65
2023/04/09 03:44:02;;;;;;;12.30;8.80;;;;;;;13.94;55.47;101057.02;108036;1285;22001;-66
2023/04/09 03:46:28;;;;;;;13.60;8.80;;;;;;;13.96;55.47;101055.73;108226;1284;22045;-64
2023/04/09 03:48:54;;;;;;;13.10;9.10;;;;;;;13.99;55.58;101057.48;108258;1284;22187;-66
2023/04/09 03:51:19;;;;;;;13.00;10.00;;;;;;;14.03;55.66;101056.35;108187;1284;21987;-66
2023/04/09 03:53:47;;;;;;;15.90;10.80;;;;;;;14.06;55.57;101056.66;108145;1284;21995;-65
2023/04/09 03:56:15;;;;;;;15.10;10.50;;;;;;;14.05;55.48;101058.61;108152;1284;23627;-65
2023/04/09 03:58:41;;;;;;;12.50;10.00;;;;;;;14.04;55.50;101055.80;108270;1284;21995;-64
2023/04/09 04:01:07;;;;;;;11.70;8.50;;;;;;;14.02;55.61;101055.48;108157;1284;21992;-66
2023/04/09 04:03:32;;;;;;;11.30;8.60;;;;;;;14.00;55.51;101055.34;108100;1284;22000;-66
2023/04/09 04:06:01;;;;;;;13.70;8.90;;;;;;;13.99;55.70;101060.81;108144;1284;22006;-64
2023/04/09 04:08:28;;;;;;;10.90;8.60;;;;;;;13.97;55.78;101064.54;108183;1284;21986;-64
2023/04/09 04:10:54;;;;;;;13.20;9.10;;;;;;;13.97;55.80;101061.20;108178;1284;21985;-64
2023/04/09 04:13:36;;;;;;;13.80;10.20;;;;;;;14.01;56.22;101056.90;108310;1281;21991;-65
2023/04/09 04:16:06;;;;;;;16.20;10.90;;;;;;;14.07;56.37;101058.06;108099;1285;21989;-64
2023/04/09 04:18:32;;;;;;;12.30;10.10;;;;;;;14.12;56.52;101065.20;108143;1284;21988;-67
2023/04/09 04:21:02;;;;;;;13.20;9.20;;;;;;;14.19;56.70;101069.33;108183;1284;21988;-64
2023/04/09 04:23:48;;;;;;;13.50;8.70;;;;;;;14.27;56.81;101072.02;108130;1285;21996;-64
2023/04/09 04:26:16;;;;;;;12.40;8.40;;;;;;;14.37;56.91;101074.67;108094;1285;21983;-65
2023/04/09 04:28:45;;;;;;;12.80;9.20;;;;;;;14.47;56.96;101075.03;108089;1285;23666;-65
2023/04/09 04:31:11;;;;;;;13.60;10.50;;;;;;;14.57;57.02;101072.73;108335;1285;24330;-64
2023/04/09 04:33:37;;;;;;;14.40;11.50;;;;;;;14.64;56.85;101070.48;108116;1284;22839;-65
2023/04/09 04:36:08;;;;;;;19.30;11.40;;;;;;;14.65;56.78;101067.30;108250;1284;21978;-63
2023/04/09 04:38:34;;;;;;;15.00;11.40;;;;;;;14.64;56.78;101070.86;108130;1284;21984;-66
2023/04/09 04:41:00;;;;;;;15.20;10.60;;;;;;;14.66;56.83;101068.70;108065;1281;21993;-66
2023/04/09 04:43:26;;;;;;;16.40;11.90;;;;;;;14.70;57.05;101071.12;108182;1284;22014;-67
2023/04/09 04:45:55;;;;;;;16.40;10.70;;;;;;;14.73;57.08;101069.30;108158;1284;22061;-64
2023/04/09 04:48:21;;;;;;;13.20;10.70;;;;;;;14.77;57.14;101070.30;108131;1284;21983;-68
2023/04/09 04:50:53;;;;;;;16.70;12.40;;;;;;;14.81;57.25;101071.80;108077;1284;149149;-64
2023/04/09 04:53:19;;;;;;;15.60;11.80;;;;;;;14.84;57.16;101072.27;108164;1273;22026;-64
2023/04/09 04:55:46;;;;;;;14.90;12.10;;;;;;;14.88;57.47;101071.15;108035;1285;21986;-67
2023/04/09 04:58:11;;;;;;;15.20;11.90;;;;;;;14.87;57.55;101069.77;108079;1285;21984;-65
2023/04/09 05:00:39;;;;;;;15.20;11.30;;;;;;;14.87;57.54;101071.52;108069;1285;21994;-64
2023/04/09 05:03:05;;;;;;;14.10;11.00;;;;;;;14.90;57.78;101071.81;108127;1285;22006;-68
2023/04/09 05:05:30;;;;;;;14.80;11.40;;;;;;;14.96;58.03;101074.17;108101;1285;21981;-65
2023/04/09 05:07:57;;;;;;;15.50;12.20;;;;;;;15.05;58.54;101072.41;108049;1285;22218;-64
2023/04/09 05:10:22;;;;;;;16.60;12.20;;;;;;;15.12;59.20;101074.38;108130;1285;22042;-67
2023/04/09 05:12:49;;;;;;;13.60;11.20;;;;;;;15.19;59.10;101072.66;108141;1286;22761;-66
2023/04/09 05:15:15;;;;;;;14.50;11.40;;;;;;;15.32;59.32;101075.05;108135;1286;21994;-64
2023/04/09 05:17:42;;;;;;;14.80;10.40;;;;;;;15.50;59.56;101077.86;108079;1285;21985;-64
2023/04/09 05:20:09;;;;;;;12.50;10.20;;;;;;;15.72;59.60;101076.84;108149;1285;21982;-63
2023/04/09 05:22:35;;;;;;;13.60;11.40;;;;;;;15.93;59.50;101073.39;108207;1285;22007;-65
2023/04/09 05:25:03;;;;;;;14.90;11.90;;;;;;;16.16;59.75;101075.51;108165;1285;22452;-67
2023/04/09 05:27:29;;;;;;;11.90;10.10;;;;;;;16.32;59.28;101072.44;108184;1285;21983;-65
2023/04/09 05:29:55;;;;;;;14.10;9.30;;;;;;;16.47;59.01;101074.20;108274;1285;23769;-63
2023/04/09 05:32:22;;;;;;;10.90;7.80;;;;;;;16.61;58.86;101073.83;108185;1284;21984;-63
2023/04/09 05:34:48;;;;;;;11.20;9.00;;;;;;;16.77;59.35;101070.57;108143;1285;22005;-67
2023/04/09 05:37:14;;;;;;;13.10;9.70;;;;;;;16.99;59.33;101072.82;108134;1285;21991;-65
2023/04/09 05:39:43;;;;;;;14.30;10.20;;;;;;;17.18;59.17;101077.79;108162;1285;21983;-65
2023/04/09 05:42:10;;;;;;;11.70;9.50;;;;;;;17.38;58.92;101075.11;108160;1285;21983;-63
2023/04/09 05:44:36;;;;;;;14.80;8.30;;;;;;;17.54;58.79;101078.17;108170;1285;21985;-64
2023/04/09 05:47:03;;;;;;;13.00;8.50;;;;;;;17.70;58.92;101075.92;108583;1285;21933;-67
2023/04/09 05:49:29;;;;;;;11.80;8.60;;;;;;;17.84;58.42;101077.63;108413;1286;21998;-68
2023/04/09 05:51:55;;;;;;;11.90;8.90;;;;;;;17.94;58.21;101074.82;108126;1286;21991;-64
2023/04/09 05:54:22;;;;;;;10.60;8.60;;;;;;;18.08;58.47;101072.80;108133;1286;23635;-66
2023/04/09 05:56:48;;;;;;;10.70;8.50;;;;;;;18.25;58.80;101068.34;108131;1285;21985;-67
2023/04/09 05:59:21;;;;;;;11.10;7.90;;;;;;;18.39;58.64;101066.83;108159;1285;21989;-64
2023/04/09 06:01:48;;;;;;;10.40;7.30;;;;;;;18.51;58.62;101065.15;108194;1285;21986;-66
2023/04/09 06:04:14;;;;;;;9.50;7.40;;;;;;;18.67;58.40;101061.39;108218;1285;22020;-64
2023/04/09 06:06:46;;;;;;;9.10;7.70;;;;;;;18.85;58.19;101058.47;108147;1285;21986;-64
2023/04/09 06:09:12;;;;;;;9.30;7.60;;;;;;;19.02;58.35;101055.71;107395;1285;1002091;-67
2023/04/09 06:11:38;;;;;;;11.00;7.70;;;;;;;19.16;58.18;101056.81;108160;1285;21984;-67
2023/04/09 06:14:04;;;;;;;9.10;7.00;;;;;;;19.28;57.11;101057.45;108151;1285;22006;-67
2023/04/09 06:16:35;;;;;;;8.00;6.40;;;;;;;19.36;56.56;101060.17;108100;1286;21993;-65
2023/04/09 06:19:01;;;;;;;7.80;6.40;;;;;;;19.41;56.45;101058.92;108140;1286;21991;-66
2023/04/09 06:21:27;;;;;;;8.60;7.10;;;;;;;19.45;56.56;101061.07;108165;1286;21989;-67
2023/04/09 06:23:53;;;;;;;9.30;7.20;;;;;;;19.53;56.41;101065.73;108094;1286;21996;-64
2023/04/09 06:26:18;;;;;;;8.80;7.40;;;;;;;19.64;56.51;101068.53;108270;1285;21988;-66
2023/04/09 06:28:44;;;;;;;10.90;7.50;;;;;;;19.82;56.84;101071.02;108256;1285;21977;-64
2023/04/09 06:31:11;;;;;;;7.50;6.50;;;;;;;19.92;56.29;101068.86;108243;1281;21971;-65
2023/04/09 06:33:36;;;;;;;7.00;5.70;;;;;;;20.02;56.25;101072.56;108227;1285;21985;-68
2023/04/09 06:36:02;;;;;;;6.70;5.30;;;;;;;20.10;56.03;101075.07;108219;1285;21987;-66
2023/04/09 06:38:28;;;;;;;8.20;6.30;;;;;;;20.25;55.90;101077.16;108112;1285;21986;-67
2023/04/09 06:40:55;;;;;;;8.00;6.20;;;;;;;20.40;55.67;101078.67;108072;1285;21988;-65
2023/04/09 06:43:24;;;;;;;8.00;5.80;;;;;;;20.55;56.29;101079.63;108266;1285;23732;-64
2023/04/09 06:45:50;;;;;;;7.80;5.40;;;;;;;20.74;56.32;101082.20;108164;1285;21987;-65
2023/04/09 06:48:16;;;;;;;6.80;5.30;;;;;;;20.88;55.78;101079.13;108143;1280;21986;-67
2023/04/09 06:50:43;;;;;;;6.10;5.20;;;;;;;21.07;56.06;101079.36;108157;1286;22001;-65
2023/04/09 06:53:09;;;;;;;5.60;4.60;;;;;;;21.31;54.71;101080.23;108105;1285;21989;-65
2023/04/09 06:55:34;;;;;;;7.20;5.70;;;;;;;21.42;52.90;101081.13;108172;1285;21989;-66
2023/04/09 06:58:01;;;;;;;7.10;4.90;;;;;;;21.52;53.49;101081.02;108185;1285;21989;-65
2023/04/09 07:00:27;;;;;;;7.20;5.80;;;;;;;21.70;53.98;101079.50;108253;1285;21993;-65
2023/04/09 07:03:13;;;;;;;8.50;6.00;;;;;;;22.02;54.06;101080.30;108249;1285;22946;-67
2023/04/09 07:05:41;;;;;;;7.10;5.60;;;;;;;22.16;52.85;101081.39;108153;1285;21987;-64
2023/04/09 07:08:06;;;;;;;7.30;5.60;;;;;;;22.19;51.15;101078.56;108056;1286;22020;-66
2023/04/09 07:10:40;;;;;;;8.80;5.70;;;;;;;22.27;50.96;101077.63;108048;1286;21984;-65
2023/04/09 07:13:06;;;;;;;6.70;4.70;;;;;;;22.52;51.69;101073.17;108083;1285;22335;-66
2023/04/09 07:15:32;;;;;;;5.40;4.70;;;;;;;22.83;51.79;101067.64;108158;1285;21991;-67
2023/04/09 07:18:02;;;;;;;6.50;5.20;;;;;;;23.05;50.72;101065.96;108149;1285;21990;-66
2023/04/09 07:20:28;;;;;;;5.60;4.70;;;;;;;23.13;50.84;101066.95;108172;1285;21984;-65
2023/04/09 07:22:54;;;;;;;5.60;5.00;;;;;;;23.16;50.70;101069.50;108350;1285;21980;-65
2023/04/09 07:25:24;;;;;;;6.20;4.90;;;;;;;23.24;49.93;101069.62;108195;1285;22646;-66
2023/04/09 07:27:49;;;;;;;5.80;4.70;;;;;;;23.39;50.74;101069.67;108210;1285;22045;-68
2023/04/09 07:30:15;;;;;;;5.40;4.00;;;;;;;23.50;49.56;101073.38;108256;1285;22453;-65
2023/04/09 07:32:41;;;;;;;4.40;4.00;;;;;;;23.59;49.09;101070.02;108209;1285;21991;-67
2023/04/09 07:35:11;;;;;;;5.60;4.50;;;;;;;23.79;48.62;101070.71;108077;1286;21989;-68
2023/04/09 07:37:37;;;;;;;6.70;4.50;;;;;;;23.89;48.04;101071.17;108124;1286;22001;-65
2023/04/09 07:40:03;;;;;;;5.70;4.70;;;;;;;23.86;47.93;101074.42;108105;1286;21996;-65
2023/04/09 07:42:30;;;;;;;5.70;5.10;;;;;;;24.06;49.32;101070.77;108171;1286;21986;-65
2023/04/09 07:44:56;;;;;;;5.60;4.90;;;;;;;24.26;49.51;101074.86;108107;1286;21985;-67
2023/04/09 07:47:23;;;;;;;5.00;4.00;;;;;;;24.43;49.52;101072.77;108148;1286;21999;-68
2023/04/09 07:49:50;;;;;;;6.10;4.40;;;;;;;24.65;48.99;101070.92;108184;1286;21991;-66
2023/04/09 07:52:15;;;;;;;5.30;4.30;;;;;;;24.88;47.21;101069.73;108173;1286;21950;-65
2023/04/09 07:54:46;;;;;;;5.00;4.10;;;;;;;24.92;47.36;101070.01;108122;1286;21997;-66
2023/04/09 07:57:12;;;;;;;8.20;4.50;;;;;;;24.82;46.18;101071.89;108133;1286;22616;-65
2023/04/09 07:59:38;;;;;;;5.20;4.30;;;;;;;24.59;46.09;101076.11;108118;1286;21970;-66
2023/04/09 08:02:06;;;;;;;5.10;4.40;;;;;;;24.49;46.85;101074.02;108137;1286;21991;-66
2023/04/09 08:04:32;;;;;;;5.10;4.30;;;;;;;24.53;47.31;101072.55;108357;1286;22454;-67
2023/04/09 08:06:57;;;;;;;6.40;4.60;;;;;;;24.56;46.43;101073.04;108129;1286;21991;-66
2023/04/09 08:09:23;;;;;;;6.00;4.60;;;;;;;24.54;45.81;101071.53;108169;1286;21981;-66
2023/04/09 08:11:49;;;;;;;5.50;4.40;;;;;;;24.50;45.94;101071.29;108125;1285;22053;-68
2023/04/09 08:14:15;;;;;;;6.00;4.80;;;;;;;24.49;46.28;101071.17;108131;1285;21991;-67
2023/04/09 08:16:47;;;;;;;5.20;4.10;;;;;;;24.61;46.69;101068.10;108224;1285;21984;-67
2023/04/09 08:19:14;;;;;;;6.00;4.20;;;;;;;24.94;46.99;101065.23;108241;1285;22457;-68
2023/04/09 08:21:42;;;;;;;5.30;3.90;;;;;;;25.16;45.27;101067.29;108169;1285;22260;-67
2023/04/09 08:24:10;;;;;;;5.50;4.00;;;;;;;25.33;44.69;101066.21;108165;1285;21984;-68
2023/04/09 08:26:38;;;;;;;5.90;3.80;;;;;;;25.51;44.67;101063.49;108098;1285;21993;-65
2023/04/09 08:29:04;;;;;;;6.50;4.20;;;;;;;25.73;44.92;101064.23;108109;1285;21986;-69
2023/04/09 08:31:32;;;;;;;7.30;4.00;;;;;;;25.96;44.59;101056.59;108163;1286;21991;-66
2023/04/09 08:33:58;;;;;;;4.90;3.50;;;;;;;26.14;45.03;101057.78;108243;1286;21952;-68
2023/04/09 08:36:25;;;;;;;3.80;3.40;;;;;;;26.15;43.80;101058.75;108167;1286;21993;-66
2023/04/09 08:38:51;;;;;;;4.40;3.90;;;;;;;26.10;43.48;101056.55;108158;1286;21985;-65
2023/04/09 08:41:18;;;;;;;4.90;4.40;;;;;;;26.09;43.69;101051.09;108116;1285;21979;-67
2023/04/09 08:43:46;;;;;;;5.50;4.40;;;;;;;26.10;42.65;101051.92;108091;1285;22042;-68
2023/04/09 08:46:14;;;;;;;5.60;4.80;;;;;;;25.98;42.48;101052.16;108131;1285;21980;-65
2023/04/09 08:48:41;;;;;;;6.00;5.10;;;;;;;25.79;42.97;101051.78;108133;1285;22449;-65
2023/04/09 08:51:07;;;;;;;6.00;4.50;;;;;;;25.61;42.97;101049.71;108195;1286;21982;-65
2023/04/09 08:53:32;;;;;;;6.20;4.50;;;;;;;25.47;42.29;101047.00;108194;1286;22023;-68
2023/04/09 08:55:59;;;;;;;5.40;4.30;;;;;;;25.29;41.22;101045.67;108210;1286;21986;-65
2023/04/09 08:58:24;;;;;;;5.70;4.70;;;;;;;25.03;42.21;101045.48;108120;1286;21984;-68
2023/04/09 09:00:50;;;;;;;5.70;4.30;;;;;;;24.94;42.15;101042.79;108192;1286;21987;-67
2023/04/09 09:03:18;;;;;;;5.90;4.80;;;;;;;25.00;42.51;101039.16;108271;1284;21980;-66
2023/04/09 09:05:44;;;;;;;5.50;4.70;;;;;;;25.37;43.77;101039.02;108131;1285;21983;-66
2023/04/09 09:08:32;;;;;;;4.90;4.10;;;;;;;25.94;44.19;101034.79;108633;1285;21937;-67
2023/04/09 09:10:58;;;;;;;5.70;3.70;;;;;;;26.78;43.93;101027.86;108090;1285;23039;-64
2023/04/09 09:13:25;;;;;;;5.70;4.80;;;;;;;27.35;41.40;101022.05;108096;1285;21981;-64
2023/04/09 09:15:54;;;;;;;5.70;3.70;;;;;;;27.39;39.32;101018.33;108913;1286;21996;-64
2023/04/09 09:18:42;;;;;;;5.80;4.40;;;;;;;27.18;38.86;101020.02;108141;1286;22043;-67
2023/04/09 09:21:10;;;;;;;5.70;4.40;;;;;;;27.01;40.16;101022.85;108106;1286;22026;-68
2023/04/09 09:23:37;;;;;;;7.20;4.10;;;;;;;26.74;39.20;101021.51;108124;1285;21985;-65
2023/04/09 09:26:13;;;;;;;5.30;4.40;;;;;;;26.35;38.90;101024.54;108178;1280;21986;-67
2023/04/09 09:28:40;;;;;;;5.50;4.20;;;;;;;26.00;39.15;101025.95;108301;1283;22023;-70
2023/04/09 09:31:10;;;;;;;6.80;4.10;;;;;;;25.76;39.45;101031.30;108182;1284;23641;-67
2023/04/09 09:33:36;;;;;;;7.60;4.40;;;;;;;25.55;39.64;101032.48;108097;1284;24192;-65
2023/04/09 09:36:02;;;;;;;5.50;4.00;;;;;;;25.38;39.95;101031.40;108108;1284;21988;-65
2023/04/09 09:38:29;;;;;;;7.40;4.60;;;;;;;25.33;40.38;101028.83;108139;1284;21992;-68
2023/04/09 09:40:55;;;;;;;6.90;4.60;;;;;;;25.26;39.72;101028.02;108234;1284;22853;-64
2023/04/09 09:43:23;;;;;;;7.40;4.50;;;;;;;25.04;39.02;101030.86;108263;1284;22187;-68
2023/04/09 09:45:49;;;;;;;6.10;5.00;;;;;;;24.84;39.33;101028.89;108191;1284;22037;-68
2023/04/09 09:48:16;;;;;;;4.90;4.10;;;;;;;24.68;39.11;101023.92;108152;1284;21988;-66
2023/04/09 09:50:42;;;;;;;6.30;4.10;;;;;;;24.51;38.21;101024.95;107524;1284;1003089;-68
2023/04/09 09:53:13;;;;;;;6.20;3.90;;;;;;;24.37;38.86;101026.31;108180;1284;21982;-65
2023/04/09 09:55:42;;;;;;;6.50;5.10;;;;;;;24.31;39.85;101025.77;108029;1281;21980;-68
2023/04/09 09:58:26;;;;;;;8.70;5.90;;;;;;;24.35;40.27;101028.95;108243;1284;21984;-68
2023/04/09 10:00:52;;;;;;;7.00;4.90;;;;;;;24.28;40.00;101029.02;108135;1284;21987;-68
2023/04/09 10:03:22;;;;;;;8.50;4.30;;;;;;;24.09;39.73;101025.80;108064;1284;21978;-69
2023/04/09 10:05:48;;;;;;;5.90;4.20;;;;;;;23.89;39.37;101026.56;108184;1284;22021;-68
2023/04/09 10:08:15;;;;;;;4.80;4.10;;;;;;;23.62;38.68;101026.67;108239;1284;21987;-65
2023/04/09 10:10:41;;;;;;;5.70;4.40;;;;;;;23.30;38.76;101033.48;108141;1284;21989;-67
2023/04/09 10:13:14;;;;;;;6.80;4.70;;;;;;;22.89;38.71;101045.85;107337;1280;1002651;-69
2023/04/09 10:15:43;;;;;;;7.60;5.30;;;;;;;22.41;39.73;101051.76;108138;1281;22009;-69
2023/04/09 10:18:09;;;;;;;8.70;4.80;;;;;;;21.96;40.94;101055.56;108236;1284;22277;-65
2023/04/09 10:20:55;;;;;;;5.50;3.70;;;;;;;21.39;41.19;101060.61;108266;1284;21978;-69
2023/04/09 10:23:31;;;;;;;8.00;4.20;;;;;;;20.67;41.17;101066.27;108168;1284;21985;-68
2023/04/09 10:25:56;;;;;;;7.90;4.70;;;;;;;20.03;42.22;101062.54;108111;1284;22222;-64
2023/04/09 10:28:23;;;;;;;7.40;5.10;;;;;;;19.71;42.84;101064.84;108127;1284;21986;-65
2023/04/09 10:30:48;;;;;;;7.60;3.70;;;;;;;19.27;42.89;101066.17;108243;1283;21984;-64
2023/04/09 10:33:35;;;;;;;4.60;2.60;;;;;;;18.88;42.18;101069.02;108030;1281;23620;-64
2023/04/09 10:36:04;;;;;;;5.90;4.20;;;;;;;18.33;41.75;101076.42;108199;1284;21985;-64
2023/04/09 10:38:39;;;;;;;7.70;4.70;;;;;;;18.10;42.71;101084.97;108164;1284;23158;-63
2023/04/09 10:41:14;;;;;;;7.10;4.30;;;;;;;18.02;43.79;101085.76;108238;1284;21974;-71
2023/04/09 10:43:42;;;;;;;5.80;3.00;;;;;;;17.78;44.37;101091.98;108227;1284;22056;-66
2023/04/09 10:46:28;;;;;;;4.70;2.30;;;;;;;17.54;44.32;101101.95;108028;1284;21989;-69
2023/04/09 10:49:23;;;;;;;4.20;2.80;;;;;;;17.30;44.61;101100.89;108303;1284;21994;-68
2023/04/09 10:52:03;;;;;;;4.00;2.80;;;;;;;17.04;44.96;101100.19;108142;1286;21989;-68
2023/04/09 10:54:33;;;;;;;3.80;2.90;;;;;;;16.96;45.54;101096.31;108094;1284;22047;-69
2023/04/09 10:57:09;;;;;;;5.00;2.90;;;;;;;16.87;46.16;101102.73;108181;1284;21982;-67
2023/04/09 10:59:45;;;;;;;4.00;2.80;;;;;;;16.85;46.42;101107.23;108176;1281;21986;-68
2023/04/09 11:02:26;;;;;;;5.50;3.60;;;;;;;16.88;47.05;101105.54;108195;1284;22048;-68
2023/04/09 11:05:17;;;;;;;6.10;4.60;;;;;;;16.93;47.44;101103.64;108111;1284;21993;-70
2023/04/09 11:07:46;;;;;;;6.60;3.60;;;;;;;16.95;47.55;101097.74;108343;1284;21996;-67
2023/04/09 11:10:12;;;;;;;5.70;4.10;;;;;;;16.91;48.12;101099.25;108403;1284;21981;-69
2023/04/09 11:12:46;;;;;;;5.00;3.70;;;;;;;16.88;48.27;101098.98;108318;1284;21983;-69
2023/04/09 11:15:17;;;;;;;6.30;3.40;;;;;;;16.90;48.51;101097.34;108373;1284;21997;-69
2023/04/09 11:17:56;;;;;;;5.50;3.20;;;;;;;16.93;49.10;101093.00;108250;1284;24173;-66
2023/04/09 11:20:24;;;;;;;4.40;3.10;;;;;;;16.99;49.26;101092.52;108042;1284;22750;-65